Flight Track Log - Related Links

Times and Time Zones

All times are in EDT time to prevent confusion due to time zone crossing. See the N960DL flight status page for this flight to view local times or setup timezone preferences in your user account.

Time Position Orientation Groundspeed Altitude Reporting Facility
EDT Latitude Longitude Course Direction KTS MPH feet Rate Location/Type
Tue 07:23:44 PM 33.6500 -84.3667 252° West 179 206 2,300  Level Atlanta TRACON
Tue 07:24:44 PM 33.6833 -84.3000 59° Northeast 259 298 4,600 2,700 Climbing Atlanta TRACON
Tue 07:25:00 PM 33.8001 -84.3638 270° West  Level FlightAware Approximate
Tue 07:25:44 PM 33.7500 -84.2833 12° North 282 325 7,700  Level Atlanta TRACON
Tue 07:26:00 PM 33.8001 -84.5015 270° West  Level FlightAware Approximate
Tue 07:27:00 PM 33.7941 -84.6381 252° West  Level FlightAware Approximate
Tue 07:27:53 PM 33.8103 -84.4414 295° West 256 295 11,700  Level Atlanta Center
Tue 07:28:00 PM 33.7581 -84.7687 252° West  Level FlightAware Approximate
Tue 07:28:53 PM 33.8119 -84.5514 271° West 316 364 14,100  Level Atlanta Center
Tue 07:29:00 PM 33.7219 -84.8993 252° West  Level FlightAware Approximate
Tue 07:29:53 PM 33.7883 -84.6836 258° West 348 400 16,800  Level Atlanta Center
Tue 07:30:53 PM 33.7564 -84.8083 253° West 377 434 18,900 2,100 Climbing Atlanta Center
Tue 07:31:53 PM 33.7222 -84.9356 252° West 407 468 21,000 2,100 Climbing Atlanta Center
Tue 07:32:53 PM 33.6919 -85.0675 255° West 407 468 23,100 1,500 Climbing Atlanta Center
Tue 07:33:53 PM 33.6594 -85.1994 254° West 413 475 24,000 450 Climbing Atlanta Center
Tue 07:34:53 PM 33.6517 -85.3339 266° West 413 475 24,000  Level Atlanta Center
Tue 07:35:53 PM 33.6544 -85.4739 271° West 413 475 24,000  Level Atlanta Center
Tue 07:36:53 PM 33.6611 -85.6111 273° West 419 482 24,000  Level Atlanta Center
Tue 07:37:53 PM 33.6614 -85.7483 270° West 419 482 24,000  Level Atlanta Center
Tue 07:38:53 PM 33.6597 -85.8683 269° West 413 475 24,000  Level Atlanta Center
Tue 07:39:53 PM 33.6639 -86.0006 272° West 407 468 24,000  Level Atlanta Center
Tue 07:40:53 PM 33.6658 -86.1378 271° West 407 468 24,000  Level Atlanta Center
Tue 07:41:53 PM 33.6675 -86.2778 271° West 407 468 24,000  Level Atlanta Center
Tue 07:42:53 PM 33.6689 -86.4175 271° West 412 474 24,000  Level Atlanta Center
Tue 07:43:53 PM 33.6683 -86.5547 270° West 417 480 24,000  Level Atlanta Center
Tue 07:44:53 PM 33.6697 -86.6922 271° West 417 480 24,000  Level Atlanta Center
Tue 07:45:53 PM 33.6708 -86.8269 271° West 417 480 24,000  Level Atlanta Center
Tue 07:48:22 PM 33.7889 -87.1506 294° West 409 471 24,000  Level Memphis Center
Tue 07:49:22 PM 33.8442 -87.2686 299° West 417 480 24,000  Level Memphis Center
Tue 07:50:22 PM 33.8992 -87.3892 299° West 406 467 24,000  Level Memphis Center
Tue 07:51:22 PM 33.9478 -87.4953 299° West 406 467 24,000  Level Memphis Center
Tue 07:52:22 PM 34.0047 -87.6161 300° West 406 467 24,000  Level Memphis Center
Tue 07:53:22 PM 34.0636 -87.7369 300° West 406 467 24,000  Level Memphis Center
Tue 07:54:22 PM 34.1203 -87.8556 300° West 411 473 24,000  Level Memphis Center
Tue 07:55:22 PM 34.1789 -87.9744 301° West 411 473 24,000  Level Memphis Center
Tue 07:56:22 PM 34.2375 -88.0958 300° West 411 473 24,000  Level Memphis Center
Tue 07:57:22 PM 34.2981 -88.2150 302° West 411 473 24,000 -100 Level Memphis Center
Tue 07:58:22 PM 34.3544 -88.3319 300° West 410 472 23,800 -650 Descending Memphis Center
Tue 07:59:22 PM 34.4083 -88.4414 301° West 397 457 22,700 -1,050 Descending Memphis Center
Tue 08:00:22 PM 34.4578 -88.5461 300° West 385 443 21,700 -1,000 Descending Memphis Center
Tue 08:01:22 PM 34.5114 -88.6508 302° West 372 428 20,700 -950 Descending Memphis Center
Tue 08:02:22 PM 34.5631 -88.7556 301° West 367 422 19,800 -950 Descending Memphis Center
Tue 08:03:22 PM 34.6122 -88.8583 300° West 361 415 18,800 -950 Descending Memphis Center
Tue 08:04:22 PM 34.6511 -88.9636 294° West 349 402 17,900 -900 Descending Memphis Center
Tue 08:05:22 PM 34.6731 -89.0742 284° West 339 390 17,000 -900 Descending Memphis Center
Tue 08:06:22 PM 34.6972 -89.1825 285° West 339 390 16,100 -900 Descending Memphis Center
Tue 08:07:22 PM 34.7231 -89.2958 286° West 339 390 15,200 -1,000 Descending Memphis Center
Tue 08:08:22 PM 34.7492 -89.4042 286° West 339 390 14,100 -1,150 Descending Memphis Center
Tue 08:09:22 PM 34.7814 -89.5228 288° West 339 390 12,900 -1,150 Descending Memphis Center
Tue 08:10:22 PM 34.8297 -89.6158 302° West 334 384 11,800 -950 Descending Memphis Center
Tue 08:11:22 PM 34.8719 -89.7042 300° West 316 364 11,000 -750 Descending Memphis Center
Tue 08:12:22 PM 34.9078 -89.7722 303° West 280 322 10,300 -1,050 Descending Memphis Center
Tue 08:13:22 PM 34.9394 -89.8378 301° West 243 280 8,900 -1,050 Descending Memphis Center
Tue 08:14:22 PM 34.9814 -89.8856 317° Northwest 220 253 8,200 -913 Descending Memphis Center
Tue 08:14:54 PM 35.0333 -89.8833 North 279 321 7,500 -1,370 Descending KMEM
Tue 08:15:54 PM 35.1000 -89.8667 12° North 259 298 6,100 -1,364 Descending KMEM
Tue 08:16:22 PM 35.1231 -89.8672 359° North 224 258 5,500 -1,773 Descending Memphis Center
Tue 08:17:22 PM 35.1692 -89.9100 323° Northwest 210 242 3,500 -1,714 Descending Memphis Center
Tue 08:18:00 PM 35.1667 -89.9500 266° West 196 226 2,700 -1,263 Descending KMEM

Login

Don't have an account? Register now (free) for customized features, flight alerts, and more!